Lees Summit, Missouri
Current Conditions -  °F | °C
As of 1:53 AM on Saturday 25 Oct 2014 (Local Time) from KLXT Reporting Station
Clear Clear  
Wind Chill: 61°   Ceiling: Unl
Heat Index: 61°   Visibility: 10mi
Dew Point: 59°   Wind: 8mph
Humidity: 93%   Direction: 220°SW
Pressure: 30"   Gusts: NA
Location:  38.908°N, 94.2968°W
Report Text: KLXT 250653Z AUTO 22007KT 10SM CLR 16/15 A3000 RMK AO2 SLP154 T01610150
Loading
Personal Weather Stations






























Interactive Weather Map
Tropical Storm Tracking
New forecast layout! Learn more

10-Day Weather Forecast

Advertisements
Track Severe Weather on mobile